Time;durP1;ratioP1;P1;durP2;ratioP2;P2;SDS_P1;SDS_P2;PMS_P1;PMS_P2;Temp;Humidity;BMP_temperature;BMP_pressure;BME280_temperature;BME280_humidity;BME280_pressure;Samples;Min_cycle;Max_cycle;Signal;HPM_P1;HPM_P2
2021/06/02 00:01:49;;;;;;;23.67;15.23;;;;;;;17.15;64.63;100749.47;4971414;28;20141;-48
2021/06/02 00:04:19;;;;;;;18.98;13.20;;;;;;;17.12;64.54;100747.44;4970987;28;20039;-47
2021/06/02 00:06:48;;;;;;;23.75;12.15;;;;;;;17.10;64.82;100746.22;4970092;28;20049;-45
2021/06/02 00:09:16;;;;;;;21.70;12.70;;;;;;;17.12;64.65;100747.44;4969199;28;20400;-45
2021/06/02 00:11:43;;;;;;;22.10;13.73;;;;;;;17.10;64.57;100746.22;4962176;28;20075;-47
2021/06/02 00:14:11;;;;;;;21.65;15.65;;;;;;;17.04;64.72;100737.41;4968906;28;20062;-45
2021/06/02 00:16:39;;;;;;;21.20;12.68;;;;;;;17.03;64.80;100736.59;4970708;28;20101;-45
2021/06/02 00:19:08;;;;;;;18.58;11.93;;;;;;;17.03;65.01;100738.56;4970838;28;20043;-45
2021/06/02 00:21:35;;;;;;;17.65;11.65;;;;;;;16.95;64.74;100732.13;4969080;28;20053;-47
2021/06/02 00:24:03;;;;;;;17.98;13.13;;;;;;;16.95;65.07;100737.72;4964768;28;20078;-45
2021/06/02 00:26:34;;;;;;;19.67;12.07;;;;;;;16.89;65.39;100730.88;4950184;28;20141;-47
2021/06/02 00:29:04;;;;;;;19.75;11.75;;;;;;;16.88;65.29;100731.28;4968287;28;20141;-47
2021/06/02 00:31:33;;;;;;;19.45;12.30;;;;;;;16.84;65.53;100736.03;4969536;28;20559;-47
2021/06/02 00:34:02;;;;;;;19.05;13.27;;;;;;;16.87;65.33;100735.25;4968990;28;20054;-44
2021/06/02 00:36:30;;;;;;;17.02;12.00;;;;;;;16.87;65.35;100735.25;4970240;28;20065;-47
2021/06/02 00:38:57;;;;;;;22.70;12.50;;;;;;;16.89;65.12;100730.09;4969524;28;20133;-44
2021/06/02 00:41:25;;;;;;;23.58;13.77;;;;;;;16.87;65.31;100724.06;4964571;28;20047;-48
2021/06/02 00:43:51;;;;;;;18.35;11.20;;;;;;;16.85;65.60;100720.88;4970710;28;20039;-44
2021/06/02 00:46:20;;;;;;;21.50;12.43;;;;;;;16.82;65.57;100718.84;4982364;28;20050;-44
2021/06/02 00:48:47;;;;;;;22.45;12.07;;;;;;;16.83;65.47;100718.47;4968655;28;20472;-44
2021/06/02 00:51:18;;;;;;;19.05;12.57;;;;;;;16.79;65.54;100716.81;4966093;28;20554;-48
2021/06/02 00:53:45;;;;;;;18.73;12.45;;;;;;;16.78;65.46;100716.03;4967561;28;20433;-47
2021/06/02 00:56:13;;;;;;;22.98;13.25;;;;;;;16.82;65.46;100716.03;4967782;28;20460;-44
2021/06/02 00:58:47;;;;;;;21.55;13.07;;;;;;;16.72;65.93;100712.00;4955006;28;20101;-45
2021/06/02 01:01:14;;;;;;;23.25;13.70;;;;;;;16.66;66.05;100712.72;4971420;28;20056;-48
2021/06/02 01:03:42;;;;;;;22.13;13.18;;;;;;;16.65;65.73;100702.75;4969170;28;20492;-43
2021/06/02 01:06:09;;;;;;;19.30;12.35;;;;;;;16.64;65.83;100706.72;4972204;28;20071;-43
2021/06/02 01:08:39;;;;;;;22.98;13.88;;;;;;;16.64;65.75;100704.72;4958212;28;20066;-45
2021/06/02 01:11:06;;;;;;;19.35;12.13;;;;;;;16.66;65.83;100712.72;4970915;28;20424;-44
2021/06/02 01:13:35;;;;;;;19.02;12.32;;;;;;;16.57;66.04;100706.66;4969721;28;20043;-43
2021/06/02 01:16:02;;;;;;;25.50;12.73;;;;;;;16.54;66.20;100705.44;4972347;28;20464;-47
2021/06/02 01:18:30;;;;;;;19.15;13.27;;;;;;;16.52;66.41;100718.19;4971775;28;20051;-43
2021/06/02 01:21:00;;;;;;;23.83;14.68;;;;;;;16.48;66.48;100706.97;4972220;28;20047;-44
2021/06/02 01:23:27;;;;;;;20.73;12.20;;;;;;;16.47;66.42;100710.16;4975678;28;20042;-45
2021/06/02 01:25:54;;;;;;;22.77;13.10;;;;;;;16.43;66.56;100713.72;4974977;28;20126;-46
2021/06/02 01:28:21;;;;;;;21.92;13.88;;;;;;;16.39;66.45;100704.47;4975794;28;20125;-48
2021/06/02 01:30:52;;;;;;;18.42;12.07;;;;;;;16.37;66.74;100704.06;4975471;28;20047;-43
2021/06/02 01:33:45;;;;;;;23.58;14.38;;;;;;;16.36;66.97;100707.25;4975810;28;20133;-45
2021/06/02 01:36:24;;;;;;;23.75;12.70;;;;;;;16.34;66.78;100702.03;4975254;28;20125;-44
2021/06/02 01:39:03;;;;;;;24.80;12.68;;;;;;;16.37;66.70;100706.88;4974749;28;20706;-46
2021/06/02 01:42:09;;;;;;;20.40;13.32;;;;;;;16.33;67.03;100694.06;4975694;28;20043;-44
2021/06/02 01:45:09;;;;;;;21.23;11.88;;;;;;;16.31;67.05;100697.22;4962955;28;20054;-44
2021/06/02 01:48:21;;;;;;;18.27;12.18;;;;;;;16.30;67.13;100692.84;4972925;28;20407;-44
2021/06/02 01:51:17;;;;;;;20.00;12.43;;;;;;;16.28;67.24;100692.41;4968301;28;20074;-43
2021/06/02 01:54:11;;;;;;;16.55;11.15;;;;;;;16.31;67.11;100696.41;4975998;28;20154;-46
2021/06/02 01:57:22;;;;;;;18.55;10.85;;;;;;;16.33;67.08;100692.06;4969348;28;20082;-43
2021/06/02 02:00:37;;;;;;;16.42;11.32;;;;;;;16.29;67.25;100688.44;4872043;29;20123;-44
2021/06/02 02:03:41;;;;;;;20.60;12.75;;;;;;;16.28;67.30;100692.41;4861567;29;20068;-46
2021/06/02 02:06:45;;;;;;;20.42;13.10;;;;;;;16.25;67.42;100689.59;4973079;28;20053;-45
2021/06/02 02:09:30;;;;;;;16.40;11.90;;;;;;;16.23;67.26;100689.97;4964812;28;20047;-43
2021/06/02 02:12:35;;;;;;;19.30;12.35;;;;;;;16.24;67.39;100680.41;4975048;28;20066;-45
2021/06/02 02:15:25;;;;;;;18.38;11.15;;;;;;;16.19;67.52;100683.53;4970307;28;20445;-43
2021/06/02 02:18:28;;;;;;;21.38;12.27;;;;;;;16.18;67.61;100675.53;4974726;28;20062;-43
2021/06/02 02:21:01;;;;;;;23.17;11.48;;;;;;;16.24;67.27;100676.78;4971546;28;20552;-44
2021/06/02 02:23:42;;;;;;;14.38;11.48;;;;;;;16.19;67.73;100677.97;4975546;28;20046;-43
2021/06/02 02:26:40;;;;;;;26.50;13.02;;;;;;;16.20;67.59;100662.78;4973875;28;20042;-43
2021/06/02 02:29:10;;;;;;;20.85;13.13;;;;;;;16.18;67.62;100667.97;4973625;28;20055;-44
2021/06/02 02:31:40;;;;;;;19.30;12.55;;;;;;;16.12;67.73;100668.72;4966999;28;20058;-43
2021/06/02 02:34:25;;;;;;;22.75;12.88;;;;;;;16.02;67.88;100667.41;4974352;28;20522;-42
2021/06/02 02:37:04;;;;;;;21.27;13.05;;;;;;;16.00;68.35;100668.97;4973434;28;20070;-43
2021/06/02 02:39:42;;;;;;;20.15;13.20;;;;;;;16.08;68.00;100667.84;4974065;28;20074;-43
2021/06/02 02:42:37;;;;;;;20.55;12.48;;;;;;;15.95;68.47;100667.34;4956944;28;20057;-43
2021/06/02 02:45:28;;;;;;;20.33;11.43;;;;;;;15.92;68.47;100659.72;4976783;28;20424;-44
2021/06/02 02:48:19;;;;;;;21.65;12.90;;;;;;;15.92;68.33;100662.53;4974058;28;20129;-44
2021/06/02 02:51:27;;;;;;;27.65;13.88;;;;;;;15.87;68.60;100670.44;4955667;28;20146;-44
2021/06/02 02:54:01;;;;;;;21.08;12.75;;;;;;;15.88;68.34;100661.69;4974682;28;20584;-46
2021/06/02 02:57:18;;;;;;;21.25;11.35;;;;;;;15.83;68.76;100659.25;4973324;28;20058;-43
2021/06/02 02:59:57;;;;;;;15.93;11.60;;;;;;;15.87;68.46;100657.28;4904354;28;20873;-43
2021/06/02 03:02:38;;;;;;;20.98;13.57;;;;;;;15.94;68.12;100646.19;4974593;28;20043;-43
2021/06/02 03:05:12;;;;;;;18.50;12.70;;;;;;;15.91;68.03;100638.59;4974025;28;20034;-42
2021/06/02 03:07:47;;;;;;;18.90;11.90;;;;;;;15.92;68.01;100637.38;4974119;28;20150;-43
2021/06/02 03:10:17;;;;;;;18.55;12.60;;;;;;;15.86;68.34;100626.97;4971770;28;20085;-41
2021/06/02 03:12:58;;;;;;;23.88;12.90;;;;;;;15.77;68.93;100638.44;4941481;29;20074;-43
2021/06/02 03:15:48;;;;;;;19.30;11.40;;;;;;;15.66;69.12;100637.50;4965796;28;20074;-43
2021/06/02 03:18:40;;;;;;;17.08;11.43;;;;;;;15.63;69.32;100621.53;4973505;28;20110;-43
2021/06/02 03:21:36;;;;;;;16.98;11.50;;;;;;;15.58;69.36;100624.66;4955655;28;20077;-42
2021/06/02 03:24:21;;;;;;;21.73;13.75;;;;;;;15.59;69.55;100634.66;4961748;28;20498;-43
2021/06/02 03:27:00;;;;;;;21.25;13.13;;;;;;;15.57;69.68;100631.41;4967576;28;20448;-43
2021/06/02 03:30:12;;;;;;;18.00;11.38;;;;;;;15.59;69.67;100637.44;4973379;28;20042;-47
2021/06/02 03:32:47;;;;;;;20.92;11.65;;;;;;;15.58;69.47;100628.25;4953714;28;20142;-46
2021/06/02 03:35:29;;;;;;;17.60;11.05;;;;;;;15.59;69.62;100643.03;4973205;28;20496;-45
2021/06/02 03:37:59;;;;;;;19.77;11.38;;;;;;;15.62;69.38;100636.69;4972746;28;20081;-44
2021/06/02 03:40:55;;;;;;;19.05;12.02;;;;;;;15.59;69.90;100634.66;4972995;28;20146;-43
2021/06/02 03:43:32;;;;;;;17.30;11.68;;;;;;;15.63;69.53;100638.28;4973686;28;20789;-46
2021/06/02 03:46:04;;;;;;;19.60;11.18;;;;;;;15.63;69.62;100639.09;4975160;28;20050;-45
2021/06/02 03:48:46;;;;;;;19.88;12.48;;;;;;;15.62;69.79;100640.25;4973248;28;20086;-44
2021/06/02 03:51:36;;;;;;;23.55;12.35;;;;;;;15.67;69.66;100628.75;4972149;28;20082;-46
2021/06/02 03:54:22;;;;;;;21.15;12.57;;;;;;;15.70;69.27;100621.63;4972882;28;20133;-49
2021/06/02 03:57:04;;;;;;;20.80;13.23;;;;;;;15.61;69.65;100630.31;4969556;28;20133;-48
2021/06/02 03:59:40;;;;;;;;;;;;;;;15.56;69.63;100632.63;4973452;28;20071;-48
2021/06/02 04:02:29;;;;;;;15.93;11.13;;;;;;;15.54;69.69;100626.63;4961246;28;19926;-42
2021/06/02 04:05:17;;;;;;;19.15;11.07;;;;;;;15.54;69.65;100626.63;4967940;28;20043;-46
2021/06/02 04:08:05;;;;;;;19.17;11.82;;;;;;;15.53;69.59;100633.38;4972988;28;20058;-45
2021/06/02 04:11:15;;;;;;;19.75;12.98;;;;;;;15.43;70.02;100628.47;4965261;28;20440;-45
2021/06/02 04:13:59;;;;;;;16.95;11.43;;;;;;;15.38;69.96;100626.00;4947359;28;20097;-48
2021/06/02 04:16:35;;;;;;;20.90;12.93;;;;;;;15.38;70.12;100628.81;4953812;28;20131;-45
2021/06/02 04:19:05;;;;;;;17.02;11.27;;;;;;;15.40;70.20;100632.00;4953358;28;20147;-45
2021/06/02 04:21:35;;;;;;;22.63;12.75;;;;;;;15.46;69.88;100630.53;4972720;28;20074;-44
2021/06/02 04:24:05;;;;;;;26.55;13.32;;;;;;;15.41;70.20;100628.03;4967917;28;20046;-44
2021/06/02 04:26:34;;;;;;;21.88;13.02;;;;;;;15.39;70.19;100635.97;4972620;28;20149;-44
2021/06/02 04:29:03;;;;;;;19.42;12.18;;;;;;;15.35;70.47;100643.50;4972552;28;20130;-45
2021/06/02 04:31:30;;;;;;;26.23;13.27;;;;;;;15.33;70.43;100643.09;4971916;28;20053;-44
2021/06/02 04:33:59;;;;;;;22.40;13.13;;;;;;;15.31;70.46;100640.66;4972497;28;20081;-45
2021/06/02 04:36:28;;;;;;;20.13;11.90;;;;;;;15.30;70.45;100638.25;4972132;28;20054;-43
2021/06/02 04:38:59;;;;;;;19.10;12.05;;;;;;;15.34;70.39;100641.88;4962094;28;20047;-44
2021/06/02 04:41:28;;;;;;;20.00;12.35;;;;;;;15.34;70.42;100641.88;4972092;28;20043;-47
2021/06/02 04:43:57;;;;;;;22.17;11.73;;;;;;;15.36;70.18;100636.72;4971624;28;20097;-44
2021/06/02 04:46:24;;;;;;;16.17;11.13;;;;;;;15.40;70.21;100630.03;4972406;28;20101;-43
2021/06/02 04:48:52;;;;;;;18.25;11.15;;;;;;;15.39;70.48;100633.97;4958265;28;20075;-44
2021/06/02 04:52:02;;;;;;;18.02;10.82;;;;;;;15.45;70.55;100626.09;4971698;28;20133;-45
2021/06/02 04:55:05;;;;;;;16.83;11.02;;;;;;;15.53;70.04;100630.59;4971746;28;20042;-46
2021/06/02 04:57:47;;;;;;;14.77;10.25;;;;;;;15.55;69.67;100623.44;4971308;28;20054;-49
2021/06/02 05:00:37;;;;;;;16.63;11.23;;;;;;;15.55;69.83;100628.22;4960536;28;20081;-43
2021/06/02 05:03:22;;;;;;;14.07;9.27;;;;;;;15.58;69.61;100633.84;4972178;28;20137;-44
2021/06/02 05:05:54;;;;;;;23.77;11.93;;;;;;;15.63;69.27;100632.69;4972583;28;20834;-47
2021/06/02 05:08:30;;;;;;;17.40;10.50;;;;;;;15.62;69.10;100636.69;4971675;28;20061;-45
2021/06/02 05:11:18;;;;;;;18.60;9.93;;;;;;;15.59;69.07;100626.28;4970381;28;20077;-43
2021/06/02 05:14:03;;;;;;;12.45;9.57;;;;;;;15.55;68.98;100625.44;4968989;28;20117;-47
2021/06/02 05:16:54;;;;;;;20.90;10.13;;;;;;;15.45;69.19;100626.09;4963575;28;20047;-46
2021/06/02 05:22:29;;;;;;;14.68;8.63;;;;;;;15.43;68.78;100629.25;4966652;28;20514;-44
2021/06/02 05:25:36;;;;;;;13.93;8.98;;;;;;;15.44;68.71;100627.25;4966890;28;20078;-45
2021/06/02 05:28:41;;;;;;;13.77;8.18;;;;;;;15.45;68.78;100626.09;4947075;28;20059;-47
2021/06/02 05:31:34;;;;;;;13.38;8.25;;;;;;;15.46;68.71;100630.53;4958787;28;20508;-46
2021/06/02 05:34:09;;;;;;;13.48;7.30;;;;;;;15.52;68.65;100631.75;4946887;29;20046;-46
2021/06/02 05:36:55;;;;;;;10.75;8.70;;;;;;;15.55;68.42;100636.59;4964445;28;20059;-50
2021/06/02 05:40:09;;;;;;;14.52;8.30;;;;;;;15.53;68.42;100636.16;4972852;28;20499;-45
2021/06/02 05:43:04;;;;;;;11.07;7.75;;;;;;;15.54;68.37;100635.00;4959086;28;20146;-47
2021/06/02 05:45:44;;;;;;;16.58;8.65;;;;;;;15.51;68.41;100636.56;4951956;28;20055;-49
2021/06/02 05:48:20;;;;;;;13.52;8.38;;;;;;;15.50;68.30;100631.34;4966643;28;20043;-47
2021/06/02 05:51:05;;;;;;;14.02;8.35;;;;;;;15.55;68.34;100631.00;4962465;28;20510;-43
2021/06/02 05:53:50;;;;;;;12.50;8.35;;;;;;;15.61;68.07;100640.66;4966003;28;20047;-45
2021/06/02 05:56:50;;;;;;;13.90;7.90;;;;;;;15.66;68.09;100637.50;4965781;28;20129;-48
2021/06/02 05:59:42;;;;;;;16.65;7.88;;;;;;;15.69;68.17;100636.75;4962564;28;20446;-48
2021/06/02 06:02:46;;;;;;;16.20;8.40;;;;;;;15.75;68.64;100635.25;4969579;28;20065;-48
2021/06/02 06:05:51;;;;;;;13.10;8.20;;;;;;;15.83;68.22;100634.13;4968845;28;20043;-44
2021/06/02 06:08:58;;;;;;;11.32;7.57;;;;;;;15.95;68.21;100633.84;4970588;28;20122;-45
2021/06/02 06:12:23;;;;;;;12.45;7.57;;;;;;;16.04;67.81;100637.13;4963128;28;20559;-44
2021/06/02 06:15:27;;;;;;;11.00;6.75;;;;;;;16.19;68.20;100636.06;4852195;29;20483;-46
2021/06/02 06:18:02;;;;;;;12.02;7.20;;;;;;;16.28;67.19;100638.53;4857177;29;20813;-49
2021/06/02 06:20:38;;;;;;;14.80;7.78;;;;;;;16.37;67.21;100642.59;4944162;28;20055;-46
2021/06/02 06:23:23;;;;;;;8.88;6.45;;;;;;;16.47;67.04;100637.50;4967143;28;20154;-48
2021/06/02 06:26:14;;;;;;;10.93;6.90;;;;;;;16.53;66.48;100625.59;4954235;28;20134;-44
2021/06/02 06:28:44;;;;;;;8.68;6.00;;;;;;;16.58;66.64;100628.00;4970080;28;20142;-47
2021/06/02 06:31:25;;;;;;;12.27;6.78;;;;;;;16.65;66.54;100630.06;4973688;28;20055;-45
2021/06/02 06:33:54;;;;;;;12.38;7.70;;;;;;;16.76;66.22;100636.53;4938745;28;20153;-47
2021/06/02 06:36:25;;;;;;;6.97;5.70;;;;;;;16.82;65.70;100632.16;4972887;28;20074;-46
2021/06/02 06:39:07;;;;;;;10.98;6.53;;;;;;;16.85;65.40;100626.59;4970419;28;20059;-45
2021/06/02 06:41:36;;;;;;;12.25;7.50;;;;;;;16.92;65.41;100635.03;4973066;28;20047;-44
2021/06/02 06:44:05;;;;;;;8.82;6.20;;;;;;;16.98;64.99;100629.88;4974097;28;20111;-48
2021/06/02 06:46:34;;;;;;;10.25;5.97;;;;;;;17.03;64.38;100633.09;4971978;28;20423;-44
2021/06/02 06:49:03;;;;;;;9.63;6.80;;;;;;;17.13;64.32;100625.94;4972123;28;20054;-44
2021/06/02 06:51:34;;;;;;;9.55;6.65;;;;;;;17.22;64.17;100629.19;4969208;28;20059;-53
2021/06/02 06:54:01;;;;;;;15.02;6.43;;;;;;;17.33;63.90;100630.03;4967533;28;20054;-47
2021/06/02 06:56:31;;;;;;;11.35;6.68;;;;;;;17.41;63.82;100626.06;4971919;28;20050;-44
2021/06/02 06:58:59;;;;;;;10.75;6.88;;;;;;;17.42;63.31;100633.25;4972609;28;20085;-49
2021/06/02 07:01:26;;;;;;;8.55;5.88;;;;;;;17.39;63.31;100628.47;4963567;28;20098;-47
2021/06/02 07:03:55;;;;;;;11.55;6.40;;;;;;;17.44;63.41;100622.50;4972264;28;20630;-43
2021/06/02 07:06:22;;;;;;;9.18;7.03;;;;;;;17.49;63.58;100638.91;4972607;28;20145;-46
2021/06/02 07:08:50;;;;;;;14.63;7.80;;;;;;;17.57;63.40;100629.38;4972193;28;20047;-46
2021/06/02 07:11:19;;;;;;;10.43;5.60;;;;;;;17.61;63.69;100629.34;4971707;28;20145;-48
2021/06/02 07:13:47;;;;;;;10.57;5.75;;;;;;;17.59;63.50;100626.97;4972399;28;20046;-47
2021/06/02 07:16:15;;;;;;;9.18;7.18;;;;;;;17.60;63.41;100628.59;4972396;28;20125;-44
2021/06/02 07:18:45;;;;;;;12.40;6.60;;;;;;;17.59;63.10;100626.97;4972272;28;20061;-45
2021/06/02 07:21:13;;;;;;;8.93;5.30;;;;;;;17.59;62.86;100624.16;4954790;28;20461;-44
2021/06/02 07:23:40;;;;;;;10.13;6.15;;;;;;;17.61;63.07;100630.16;4973209;28;20129;-48
2021/06/02 07:26:07;;;;;;;11.55;5.72;;;;;;;17.70;63.42;100631.78;4971738;28;20596;-48
2021/06/02 07:28:55;;;;;;;8.05;5.82;;;;;;;17.80;63.96;100626.22;4972574;28;20432;-44
2021/06/02 07:31:21;;;;;;;9.02;5.45;;;;;;;17.91;64.23;100626.22;4963652;28;20445;-46
2021/06/02 07:33:48;;;;;;;12.00;6.35;;;;;;;18.00;64.23;100629.47;4971624;28;20070;-44
2021/06/02 07:36:15;;;;;;;14.02;5.82;;;;;;;18.19;64.56;100626.25;4972560;28;20400;-48
2021/06/02 07:38:43;;;;;;;8.60;5.88;;;;;;;18.39;64.79;100626.66;4970374;28;20066;-47
2021/06/02 07:41:10;;;;;;;12.73;5.75;;;;;;;18.60;64.65;100623.88;4971806;28;20050;-46
2021/06/02 07:43:36;;;;;;;8.77;5.30;;;;;;;18.87;64.20;100627.03;4971499;28;20133;-45
2021/06/02 07:46:03;;;;;;;10.10;5.93;;;;;;;19.22;63.49;100635.38;4979460;28;20055;-45
2021/06/02 07:48:30;;;;;;;9.15;5.50;;;;;;;19.59;62.21;100630.00;4971417;28;20564;-46
2021/06/02 07:50:58;;;;;;;7.35;4.85;;;;;;;19.96;61.25;100637.84;4971456;28;20070;-46
2021/06/02 07:53:26;;;;;;;8.32;5.47;;;;;;;20.35;59.86;100637.56;4944250;29;20098;-48
2021/06/02 07:55:54;;;;;;;12.55;5.95;;;;;;;20.70;59.09;100626.00;4967150;28;20149;-45
2021/06/02 07:58:21;;;;;;;12.75;6.82;;;;;;;21.10;57.00;100639.25;4971672;28;20057;-44
2021/06/02 08:00:48;;;;;;;7.30;5.88;;;;;;;21.56;56.05;100637.91;4970283;28;20051;-46
2021/06/02 08:03:15;;;;;;;9.93;6.35;;;;;;;21.84;54.54;100631.91;4971442;28;20393;-45
2021/06/02 08:05:44;;;;;;;12.05;6.75;;;;;;;21.93;53.97;100640.66;4971049;28;20094;-47
2021/06/02 08:08:11;;;;;;;11.07;6.10;;;;;;;21.82;53.13;100631.50;4971033;28;20130;-47
2021/06/02 08:10:38;;;;;;;12.15;6.85;;;;;;;21.67;52.74;100635.75;4971570;28;20094;-48
2021/06/02 08:13:06;;;;;;;12.60;8.18;;;;;;;21.38;52.18;100632.50;4971011;28;20039;-46
2021/06/02 08:15:33;;;;;;;14.50;7.05;;;;;;;21.06;52.12;100632.06;4966586;28;20042;-46
2021/06/02 08:18:01;;;;;;;9.95;6.32;;;;;;;21.10;52.12;100633.63;4971024;28;20047;-45
2021/06/02 08:20:27;;;;;;;12.50;6.75;;;;;;;21.26;51.97;100632.28;4970756;28;20043;-45
2021/06/02 08:22:57;;;;;;;12.50;6.25;;;;;;;21.26;51.97;100644.31;4971437;28;20043;-44
2021/06/02 08:25:26;;;;;;;14.00;7.25;;;;;;;21.22;52.09;100633.09;4968496;28;20070;-47
2021/06/02 08:27:53;;;;;;;18.52;7.45;;;;;;;21.13;52.20;100637.63;4970472;28;20057;-46
2021/06/02 08:30:20;;;;;;;16.27;7.40;;;;;;;21.23;52.24;100637.50;4968605;28;20050;-44
2021/06/02 08:32:47;;;;;;;11.18;7.25;;;;;;;21.39;51.98;100638.94;4969029;28;20082;-49
2021/06/02 08:35:18;;;;;;;16.45;7.80;;;;;;;21.88;51.70;100641.13;4968484;28;20129;-45
2021/06/02 08:37:49;;;;;;;14.25;7.30;;;;;;;22.11;50.85;100646.00;4962596;28;20069;-45
2021/06/02 08:40:20;;;;;;;15.32;8.73;;;;;;;21.84;50.46;100635.50;4968236;28;20046;-46
2021/06/02 08:42:47;;;;;;;19.13;8.27;;;;;;;21.51;50.33;100635.56;4969839;28;20153;-48
2021/06/02 08:45:17;;;;;;;13.23;7.25;;;;;;;21.78;50.57;100639.22;4971914;28;20054;-48
2021/06/02 08:47:46;;;;;;;13.55;7.75;;;;;;;21.74;50.09;100638.47;4969580;28;20148;-47
2021/06/02 08:50:15;;;;;;;14.95;7.68;;;;;;;21.43;50.02;100629.22;4969923;28;20137;-45
2021/06/02 08:52:43;;;;;;;13.70;7.75;;;;;;;21.11;50.47;100629.63;4968954;28;20234;-47
2021/06/02 08:55:13;;;;;;;14.27;8.38;;;;;;;20.79;50.97;100625.50;4959331;28;20102;-43
2021/06/02 08:57:43;;;;;;;17.75;8.82;;;;;;;20.44;50.90;100623.81;4965766;28;20432;-47
2021/06/02 09:00:14;;;;;;;11.07;7.25;;;;;;;20.29;51.52;100611.91;4968441;28;20141;-48
2021/06/02 09:02:43;;;;;;;17.95;9.07;;;;;;;20.12;51.85;100615.63;4962117;28;20058;-44
2021/06/02 09:05:12;;;;;;;17.15;9.20;;;;;;;19.98;51.98;100619.34;4959872;28;20086;-44
2021/06/02 09:07:40;;;;;;;13.68;8.13;;;;;;;19.85;52.13;100620.25;4968967;28;20051;-44
2021/06/02 09:10:10;;;;;;;17.77;7.95;;;;;;;19.77;52.47;100613.88;4974993;28;20596;-48
2021/06/02 09:12:42;;;;;;;18.17;8.93;;;;;;;19.66;52.78;100613.13;4961301;28;20046;-50
2021/06/02 09:15:14;;;;;;;17.95;8.25;;;;;;;19.65;52.82;100611.50;4965379;28;20050;-45
2021/06/02 09:17:58;;;;;;;17.13;8.55;;;;;;;19.74;52.97;100613.88;4960288;28;20098;-44
2021/06/02 09:20:40;;;;;;;15.93;8.13;;;;;;;19.72;53.00;100608.69;4968250;28;20097;-43
2021/06/02 09:23:43;;;;;;;16.77;8.35;;;;;;;19.43;52.90;100616.44;4975794;28;20051;-48
2021/06/02 09:45:13;;;;;;;14.52;8.55;;;;;;;19.78;54.05;100615.44;4941057;28;20043;-46
2021/06/02 09:47:57;;;;;;;20.05;9.40;;;;;;;19.90;53.63;100606.56;4952427;28;20047;-45
2021/06/02 09:50:35;;;;;;;20.20;8.70;;;;;;;19.87;53.40;100615.00;4954731;28;20043;-47
2021/06/02 09:53:07;;;;;;;15.50;9.38;;;;;;;19.87;53.45;100618.63;4948518;29;20049;-46
2021/06/02 09:55:39;;;;;;;13.95;7.93;;;;;;;20.04;52.50;100612.06;4954151;28;20196;-44
2021/06/02 09:58:09;;;;;;;15.60;8.75;;;;;;;20.05;52.69;100613.66;4957100;28;20043;-44
2021/06/02 10:00:42;;;;;;;14.15;8.10;;;;;;;19.95;52.36;100596.88;4961331;28;20531;-46
2021/06/02 10:03:15;;;;;;;17.75;8.20;;;;;;;19.99;53.12;100601.25;4953487;28;20121;-46
2021/06/02 10:05:50;;;;;;;15.38;7.85;;;;;;;19.95;52.81;100597.69;4955838;28;20087;-47
2021/06/02 10:08:25;;;;;;;10.38;7.85;;;;;;;19.83;53.17;100592.53;4956890;28;20110;-45
2021/06/02 10:10:53;;;;;;;13.40;8.15;;;;;;;19.73;53.26;100584.19;4956944;28;20051;-46
2021/06/02 10:13:22;;;;;;;17.75;8.65;;;;;;;19.64;52.91;100576.22;4964917;28;20043;-46
2021/06/02 10:15:49;;;;;;;20.42;9.00;;;;;;;19.57;53.37;100565.03;4970396;28;20043;-45
2021/06/02 10:18:31;;;;;;;15.18;7.80;;;;;;;19.50;53.23;100556.66;4956388;28;20047;-46
2021/06/02 10:21:19;;;;;;;14.40;8.27;;;;;;;19.43;53.92;100556.69;4969008;28;20031;-45
2021/06/02 10:23:46;;;;;;;15.93;7.80;;;;;;;19.38;53.66;100557.91;4972179;28;20042;-48
2021/06/02 10:26:17;;;;;;;20.20;8.98;;;;;;;19.31;53.49;100562.72;4964586;28;20408;-44
2021/06/02 10:28:46;;;;;;;15.48;8.10;;;;;;;19.17;53.45;100568.41;4962000;28;20059;-44
2021/06/02 10:31:18;;;;;;;13.85;7.57;;;;;;;19.11;53.77;100572.88;4962395;28;20489;-44
2021/06/02 10:33:47;;;;;;;18.27;9.43;;;;;;;19.17;53.57;100565.59;4941107;28;20114;-48
2021/06/02 10:36:14;;;;;;;15.70;7.72;;;;;;;19.23;53.64;100583.63;4944717;29;20043;-45
2021/06/02 10:38:50;;;;;;;17.63;8.57;;;;;;;19.34;53.64;100573.16;4954960;28;20565;-44
2021/06/02 10:41:54;;;;;;;20.27;9.18;;;;;;;19.41;54.05;100570.31;4942273;28;20047;-51
2021/06/02 10:44:29;;;;;;;20.70;9.27;;;;;;;19.46;54.23;100561.47;4941009;28;20051;-44
2021/06/02 10:46:58;;;;;;;18.33;9.30;;;;;;;19.48;53.80;100563.88;4953302;29;20054;-44
2021/06/02 10:49:28;;;;;;;23.65;9.57;;;;;;;19.31;53.82;100576.78;4950935;28;20043;-44
2021/06/02 10:51:57;;;;;;;18.58;8.60;;;;;;;19.26;53.71;100582.81;4954494;28;20490;-43
2021/06/02 10:54:40;;;;;;;23.52;9.07;;;;;;;19.13;53.89;100581.66;4952063;28;20513;-45
2021/06/02 10:57:12;;;;;;;18.23;9.68;;;;;;;19.16;53.97;100592.88;4947463;28;20133;-44
2021/06/02 10:59:43;;;;;;;;;;;;;;;18.92;53.87;100590.16;4957897;28;20126;-46
2021/06/02 11:02:17;;;;;;;17.63;9.25;;;;;;;18.93;54.28;100584.13;4953239;28;20014;-47
2021/06/02 11:04:58;;;;;;;16.90;8.15;;;;;;;18.94;54.71;100588.53;4954393;28;20142;-45
2021/06/02 11:07:36;;;;;;;16.90;10.10;;;;;;;18.90;54.81;100595.38;4969722;28;20122;-44
2021/06/02 11:10:06;;;;;;;21.85;10.93;;;;;;;18.80;54.70;100588.56;4953241;28;20082;-45
2021/06/02 11:12:45;;;;;;;17.10;9.02;;;;;;;18.65;54.83;100582.22;4951629;28;20054;-46
2021/06/02 11:15:21;;;;;;;20.52;9.85;;;;;;;18.51;55.33;100576.63;4954032;28;20519;-44
2021/06/02 11:18:09;;;;;;;17.50;10.18;;;;;;;18.35;56.01;100567.78;4959927;28;20137;-50
2021/06/02 11:20:44;;;;;;;24.83;9.40;;;;;;;18.27;56.06;100577.41;4961181;28;20512;-46
2021/06/02 11:23:14;;;;;;;27.45;12.93;;;;;;;18.20;56.08;100567.03;4968238;28;20050;-45
2021/06/02 11:25:41;;;;;;;22.75;10.15;;;;;;;18.30;55.97;100550.59;4954015;28;21345;-46
2021/06/02 11:28:29;;;;;;;24.77;11.48;;;;;;;18.32;56.12;100545.41;4961507;28;20142;-46
2021/06/02 11:31:24;;;;;;;24.73;11.13;;;;;;;18.20;56.51;100543.81;4959398;28;20400;-46
2021/06/02 11:33:53;;;;;;;22.30;11.02;;;;;;;18.19;56.50;100553.41;4947870;28;20062;-47
2021/06/02 11:36:19;;;;;;;21.73;11.00;;;;;;;18.20;56.79;100549.41;4956129;28;20145;-46
2021/06/02 11:38:46;;;;;;;23.88;9.90;;;;;;;18.15;56.83;100553.41;4949851;28;20501;-43
2021/06/02 11:41:21;;;;;;;20.35;11.27;;;;;;;18.08;56.82;100549.81;4951266;28;20118;-47
2021/06/02 11:44:01;;;;;;;27.50;10.52;;;;;;;18.15;56.98;100559.03;4951506;28;20051;-45
2021/06/02 11:46:49;;;;;;;23.98;12.80;;;;;;;18.14;57.47;100562.22;4952281;29;20098;-47
2021/06/02 11:49:33;;;;;;;19.13;10.55;;;;;;;18.10;57.01;100556.63;4964309;28;20420;-44
2021/06/02 11:52:08;;;;;;;22.38;10.63;;;;;;;18.04;58.16;100552.63;4954838;28;20035;-46
2021/06/02 11:54:53;;;;;;;23.50;10.82;;;;;;;18.19;57.81;100557.00;4951638;28;20121;-44
2021/06/02 11:57:44;;;;;;;22.85;11.25;;;;;;;18.27;57.77;100549.38;4964015;28;20051;-46
2021/06/02 12:00:15;;;;;;;22.27;10.90;;;;;;;18.36;57.38;100549.78;4956865;28;20047;-46
2021/06/02 12:02:44;;;;;;;17.73;9.15;;;;;;;18.50;57.35;100547.00;4946393;28;20539;-45
2021/06/02 12:05:31;;;;;;;20.95;10.93;;;;;;;18.53;56.72;100540.56;4957284;28;20182;-47
2021/06/02 12:08:06;;;;;;;21.63;11.27;;;;;;;18.57;56.94;100538.56;4947481;28;20043;-45
2021/06/02 12:10:44;;;;;;;16.75;9.75;;;;;;;18.79;57.13;100528.91;4955370;28;20492;-46
2021/06/02 12:13:21;;;;;;;25.63;10.45;;;;;;;19.07;56.61;100535.59;4954348;28;20113;-48
2021/06/02 12:15:50;;;;;;;21.05;10.50;;;;;;;19.33;55.87;100529.44;4951522;28;20039;-45
2021/06/02 12:18:50;;;;;;;24.25;11.70;;;;;;;19.62;55.41;100525.25;4955901;28;20082;-45
2021/06/02 12:21:26;;;;;;;21.08;10.45;;;;;;;19.93;55.43;100532.69;4962073;28;20089;-47
2021/06/02 12:23:58;;;;;;;18.60;10.45;;;;;;;20.08;55.29;100524.09;4966277;28;20067;-47